createdAt,value
2022-09-14T00:10:36.236Z,2.60
2022-09-14T00:13:08.196Z,5.50
2022-09-14T00:18:09.236Z,2.47
2022-09-14T00:28:52.250Z,4.10
2022-09-14T00:33:56.260Z,4.68
2022-09-14T00:39:04.736Z,7.18
2022-09-14T00:44:04.409Z,4.00
2022-09-14T00:49:05.348Z,3.65
2022-09-14T00:54:04.328Z,7.50
2022-09-14T00:59:09.310Z,3.45
2022-09-14T01:04:08.386Z,4.50
2022-09-14T01:09:07.400Z,3.22
2022-09-14T01:14:13.301Z,5.63
2022-09-14T01:19:13.290Z,6.30
2022-09-14T01:24:10.333Z,5.22
2022-09-14T01:32:02.401Z,5.90
2022-09-14T01:34:34.440Z,3.72
2022-09-14T01:42:14.426Z,5.03
2022-09-14T01:44:43.370Z,4.45
2022-09-14T01:49:45.299Z,5.00
2022-09-14T02:02:55.297Z,2.25
2022-09-14T02:05:27.431Z,3.80
2022-09-14T02:13:25.992Z,4.03
2022-09-14T02:15:57.313Z,6.35
2022-09-14T02:20:57.318Z,2.38
2022-09-14T02:26:00.298Z,3.65
2022-09-14T02:33:37.673Z,6.40
2022-09-14T02:36:09.328Z,6.85
2022-09-14T02:46:14.386Z,4.05
2022-09-14T02:51:16.378Z,4.00
2022-09-14T02:56:14.302Z,8.85
2022-09-14T03:03:53.406Z,5.68
2022-09-14T03:06:22.300Z,3.70
2022-09-14T03:11:23.416Z,7.13
2022-09-14T03:16:25.576Z,2.67
2022-09-14T03:19:36.088Z,2.92
2022-09-14T03:24:45.026Z,3.53
2022-09-14T03:40:23.399Z,6.43
2022-09-14T03:45:29.363Z,5.57
2022-09-14T03:50:30.374Z,6.90
2022-09-14T03:55:38.041Z,5.40
2022-09-14T03:58:11.958Z,4.32
2022-09-14T04:00:47.749Z,4.30
2022-09-14T04:03:22.249Z,6.30
2022-09-14T04:27:16.671Z,3.58
2022-09-14T04:32:20.525Z,4.60
2022-09-14T04:40:01.462Z,4.78
2022-09-14T04:45:02.799Z,3.08
2022-09-14T04:50:03.335Z,5.75
2022-09-14T04:52:42.456Z,6.03
2022-09-14T04:55:16.803Z,7.20
2022-09-14T04:57:50.650Z,5.97
2022-09-14T05:00:24.658Z,6.40
2022-09-14T05:02:58.635Z,4.45
2022-09-14T05:05:32.580Z,5.28
2022-09-14T05:08:11.825Z,4.45
2022-09-14T05:10:46.008Z,6.03
2022-09-14T05:21:06.351Z,4.07
2022-09-14T05:26:09.337Z,8.88
2022-09-14T05:41:51.649Z,3.20
2022-09-14T05:54:53.323Z,5.85
2022-09-14T05:59:56.468Z,7.68
2022-09-14T06:04:57.686Z,6.72
2022-09-14T06:09:59.652Z,7.40
2022-09-14T06:15:01.563Z,7.65
2022-09-14T06:20:04.836Z,6.65
2022-09-14T06:30:46.910Z,7.75
2022-09-14T06:35:48.576Z,4.75
2022-09-14T06:40:53.741Z,6.10
2022-09-14T06:45:56.667Z,7.57
2022-09-14T06:50:58.904Z,4.55
2022-09-14T06:56:04.415Z,4.53
2022-09-14T07:01:05.583Z,4.43
2022-09-14T07:06:06.130Z,5.95
2022-09-14T07:11:09.961Z,4.95
2022-09-14T07:16:08.581Z,5.78
2022-09-14T07:21:08.433Z,5.05
2022-09-14T07:26:09.643Z,3.63
2022-09-14T07:31:11.576Z,6.40
2022-09-14T07:36:13.629Z,11.00
2022-09-14T07:41:18.407Z,4.72
2022-09-14T07:46:20.902Z,3.88
2022-09-14T07:51:18.608Z,9.30
2022-09-14T07:56:20.444Z,7.25
2022-09-14T08:01:21.657Z,3.92
2022-09-14T08:06:25.225Z,5.32
2022-09-14T08:19:45.586Z,4.93
2022-09-14T08:22:19.935Z,5.00
2022-09-14T08:27:23.319Z,7.30
2022-09-14T08:32:24.555Z,8.20
2022-09-14T08:37:27.126Z,6.47
2022-09-14T08:42:26.527Z,7.57
2022-09-14T08:47:28.642Z,2.40
2022-09-14T08:52:29.624Z,4.45
2022-09-14T08:57:30.549Z,5.25
2022-09-14T09:02:32.498Z,8.93
2022-09-14T09:07:37.786Z,4.65
2022-09-14T09:12:38.472Z,3.38
2022-09-14T09:17:39.472Z,6.05
2022-09-14T09:22:38.416Z,6.18
2022-09-14T09:33:12.447Z,3.90
2022-09-14T09:38:13.437Z,4.95
2022-09-14T09:46:06.795Z,4.15
2022-09-14T09:48:36.497Z,5.15
2022-09-14T09:56:12.764Z,5.68
2022-09-14T10:03:45.553Z,8.02
2022-09-14T10:08:51.534Z,5.13
2022-09-14T10:16:39.519Z,5.05
2022-09-14T10:24:34.479Z,3.88
2022-09-14T10:27:06.630Z,5.75
2022-09-14T10:32:06.515Z,7.22
2022-09-14T10:37:10.546Z,5.80
2022-09-14T10:42:11.508Z,5.28
2022-09-14T10:47:13.424Z,5.53
2022-09-14T10:52:15.472Z,4.80
2022-09-14T10:57:16.647Z,4.82
2022-09-14T11:05:09.937Z,4.22
2022-09-14T11:07:39.525Z,5.05
2022-09-14T11:12:40.691Z,6.00
2022-09-14T11:28:51.509Z,5.20
2022-09-14T11:33:52.578Z,2.45
2022-09-14T11:41:41.486Z,2.65
2022-09-14T11:44:13.579Z,1.48
2022-09-14T11:49:15.671Z,1.70
2022-09-14T11:54:22.402Z,3.75
2022-09-14T11:59:23.621Z,1.58
2022-09-14T12:04:22.731Z,2.70
2022-09-14T12:09:24.558Z,2.90
2022-09-14T12:14:25.526Z,7.22
2022-09-14T12:19:27.637Z,2.72
2022-09-14T12:27:24.575Z,2.03
2022-09-14T12:29:56.675Z,2.70
2022-09-14T12:34:55.485Z,3.63
2022-09-14T12:39:56.670Z,1.38
2022-09-14T12:50:40.647Z,2.85
2022-09-14T12:55:41.452Z,2.03
2022-09-14T13:03:27.712Z,1.20
2022-09-14T13:06:11.203Z,1.25
2022-09-14T13:11:13.775Z,4.13
2022-09-14T13:16:15.767Z,3.08
2022-09-14T13:21:19.737Z,2.90
2022-09-14T13:26:22.717Z,3.60
2022-09-14T13:31:24.650Z,2.55
2022-09-14T13:36:26.582Z,2.85
2022-09-14T13:41:27.677Z,2.53
2022-09-14T13:46:29.880Z,3.88
2022-09-14T13:57:06.738Z,2.17
2022-09-14T14:02:06.816Z,1.48
2022-09-14T14:07:08.192Z,2.05
2022-09-14T14:12:08.059Z,2.90
2022-09-14T14:17:09.553Z,2.15
2022-09-14T14:22:14.866Z,2.00
2022-09-14T14:25:12.280Z,4.32
2022-09-14T14:30:08.486Z,2.28
2022-09-14T14:40:48.545Z,1.85
2022-09-14T14:48:41.727Z,2.35
2022-09-14T14:51:13.463Z,1.92
2022-09-14T15:01:50.546Z,2.22
2022-09-14T15:06:52.516Z,3.90
2022-09-14T15:09:24.537Z,3.97
2022-09-14T15:14:27.200Z,1.88
2022-09-14T15:22:12.332Z,2.22
2022-09-14T15:24:43.530Z,3.10
2022-09-14T15:32:31.667Z,3.10
2022-09-14T15:35:03.701Z,4.03
2022-09-14T15:40:05.708Z,2.63
2022-09-14T15:45:09.045Z,4.28
2022-09-14T15:50:11.820Z,4.55
2022-09-14T15:57:52.587Z,7.10
2022-09-14T16:00:24.491Z,3.80
2022-09-14T16:05:29.603Z,7.15
2022-09-14T16:13:22.714Z,5.65
2022-09-14T16:15:58.480Z,5.35
2022-09-14T16:23:47.956Z,6.20
2022-09-14T16:28:47.578Z,6.50
2022-09-14T16:47:06.430Z,12.25
2022-09-14T16:49:38.422Z,11.80
2022-09-14T17:02:21.612Z,9.77
2022-09-14T17:04:53.457Z,10.23
2022-09-14T17:09:51.591Z,10.68
2022-09-14T17:14:52.532Z,10.00
2022-09-14T17:25:40.397Z,7.55
2022-09-14T17:28:24.280Z,7.05
2022-09-14T17:44:01.480Z,8.77
2022-09-14T17:46:31.648Z,9.77
2022-09-14T17:51:34.414Z,8.02
2022-09-14T17:59:14.467Z,7.43
2022-09-14T18:01:46.452Z,9.93
2022-09-14T18:09:51.543Z,8.70
2022-09-14T18:14:53.516Z,6.82
2022-09-14T18:17:32.711Z,9.38
2022-09-14T18:20:04.460Z,8.65
2022-09-14T18:25:09.418Z,10.52
2022-09-14T18:32:58.575Z,8.55
2022-09-14T18:35:30.495Z,7.22
2022-09-14T18:40:31.528Z,9.68
2022-09-14T18:50:52.731Z,6.20
2022-09-14T18:55:53.435Z,4.68
2022-09-14T19:00:56.369Z,9.15
2022-09-14T19:08:47.447Z,9.85
2022-09-14T19:11:16.456Z,11.70
2022-09-14T19:16:15.613Z,9.57
2022-09-14T19:23:54.917Z,13.35
2022-09-14T19:34:25.599Z,6.60
2022-09-14T19:39:29.426Z,5.97
2022-09-14T19:44:29.467Z,6.18
2022-09-14T20:05:15.454Z,9.10
2022-09-14T20:10:17.688Z,8.65
2022-09-14T20:18:06.484Z,11.52
2022-09-14T20:20:36.465Z,6.88
2022-09-14T20:33:39.527Z,7.15
2022-09-14T20:38:41.522Z,11.13
2022-09-14T20:43:43.496Z,8.48
2022-09-14T20:48:45.457Z,9.25
2022-09-14T20:56:33.498Z,7.13
2022-09-14T20:59:05.450Z,10.50
2022-09-14T21:04:06.492Z,7.90
2022-09-14T21:09:19.187Z,9.77
2022-09-14T21:11:53.406Z,7.78
2022-09-14T21:14:28.162Z,7.15
2022-09-14T21:17:05.286Z,8.57
2022-09-14T21:19:34.457Z,10.73
2022-09-14T21:24:34.419Z,11.60
2022-09-14T21:32:13.590Z,9.77
2022-09-14T21:34:52.828Z,12.93
2022-09-14T21:37:28.790Z,19.42
2022-09-14T21:40:03.164Z,17.05
2022-09-14T21:42:40.410Z,10.50
2022-09-14T21:45:15.498Z,16.25
2022-09-14T21:50:17.499Z,10.98
2022-09-14T21:55:19.496Z,15.05
2022-09-14T22:00:21.441Z,11.57
2022-09-14T22:03:00.903Z,11.98
2022-09-14T22:05:34.890Z,13.60
2022-09-14T22:08:09.168Z,8.63
2022-09-14T22:10:43.327Z,11.05
2022-09-14T22:13:17.713Z,16.00
2022-09-14T22:15:51.825Z,18.50
2022-09-14T22:18:31.293Z,10.40
2022-09-14T22:21:05.405Z,10.00
2022-09-14T22:23:39.744Z,10.25
2022-09-14T22:26:14.064Z,9.93
2022-09-14T22:28:51.059Z,10.23
2022-09-14T22:31:25.656Z,10.57
2022-09-14T22:34:06.404Z,11.18
2022-09-14T22:36:41.638Z,12.60
2022-09-14T22:39:15.659Z,14.23
2022-09-14T22:41:50.102Z,18.50
2022-09-14T22:44:25.968Z,11.83
2022-09-14T22:49:34.173Z,12.70
2022-09-14T23:06:33.242Z,13.35
2022-09-14T23:09:07.248Z,17.38
2022-09-14T23:14:11.725Z,14.30
2022-09-14T23:16:45.979Z,13.82
2022-09-14T23:19:21.889Z,12.30
2022-09-14T23:22:02.024Z,16.98
2022-09-14T23:24:35.936Z,12.73
2022-09-14T23:27:10.044Z,16.23
2022-09-14T23:29:44.106Z,11.15
2022-09-14T23:32:18.067Z,16.15
2022-09-14T23:34:52.002Z,19.83
2022-09-14T23:37:31.441Z,16.20
2022-09-14T23:40:06.640Z,15.15
2022-09-14T23:45:08.764Z,13.32
2022-09-14T23:50:11.620Z,13.90
2022-09-14T23:55:20.856Z,11.68
